createdAt,value
2017-02-13T00:08:40.729Z,100
2017-02-13T00:18:55.493Z,100
2017-02-13T00:29:08.978Z,100
2017-02-13T00:39:23.218Z,100
2017-02-13T00:49:38.152Z,100
2017-02-13T00:59:52.676Z,100
2017-02-13T01:10:06.409Z,100
2017-02-13T01:20:19.506Z,100
2017-02-13T01:30:34.391Z,100
2017-02-13T01:40:48.926Z,100
2017-02-13T01:51:02.462Z,100
2017-02-13T02:01:16.540Z,100
2017-02-13T02:11:31.532Z,100
2017-02-13T02:21:45.350Z,100
2017-02-13T02:31:59.916Z,100
2017-02-13T02:42:14.778Z,100
2017-02-13T02:52:28.614Z,100
2017-02-13T03:02:41.779Z,100
2017-02-13T03:12:55.785Z,100
2017-02-13T03:23:09.902Z,100
2017-02-13T03:33:23.193Z,100
2017-02-13T03:43:36.454Z,100
2017-02-13T03:53:49.991Z,100
2017-02-13T04:04:04.801Z,100
2017-02-13T04:14:19.057Z,100
2017-02-13T04:24:33.837Z,100
2017-02-13T04:34:47.936Z,100
2017-02-13T04:45:01.928Z,100
2017-02-13T04:55:15.738Z,100
2017-02-13T05:15:43.355Z,100
2017-02-13T05:25:58.099Z,100
2017-02-13T05:36:13.024Z,100
2017-02-13T05:46:26.776Z,100
2017-02-13T05:56:40.392Z,100
2017-02-13T06:06:54.786Z,100
2017-02-13T06:17:08.994Z,100
2017-02-13T06:27:23.788Z,100
2017-02-13T06:37:38.635Z,100
2017-02-13T06:47:53.621Z,100
2017-02-13T06:58:08.030Z,100
2017-02-13T07:08:21.613Z,100
2017-02-13T07:18:35.188Z,100
2017-02-13T07:28:49.522Z,100
2017-02-13T07:39:04.081Z,100
2017-02-13T07:49:18.587Z,100
2017-02-13T07:59:33.169Z,100
2017-02-13T08:09:47.556Z,100
2017-02-13T08:20:01.301Z,100
2017-02-13T08:30:14.834Z,100
2017-02-13T08:40:28.685Z,100
2017-02-13T08:50:42.216Z,100
2017-02-13T09:00:55.295Z,100
2017-02-13T09:11:09.801Z,100
2017-02-13T09:21:23.737Z,100
2017-02-13T09:31:37.300Z,100
2017-02-13T09:41:52.459Z,99.7
2017-02-13T09:52:06.560Z,99.2
2017-02-13T10:02:20.699Z,98
2017-02-13T10:12:35.382Z,97.2
2017-02-13T10:22:49.193Z,95.9
2017-02-13T10:33:02.934Z,95
2017-02-13T10:43:17.437Z,93.7
2017-02-13T10:53:31.356Z,93
2017-02-13T11:03:46.415Z,92
2017-02-13T11:14:01.521Z,91.8
2017-02-13T11:24:15.197Z,90.4
2017-02-13T11:34:30.109Z,89.6
2017-02-13T11:44:43.617Z,89
2017-02-13T11:54:58.300Z,88.3
2017-02-13T12:05:12.749Z,87.4
2017-02-13T12:15:26.491Z,86.8
2017-02-13T12:25:41.096Z,86
2017-02-13T12:35:55.067Z,84.9
2017-02-13T12:46:10.350Z,84.4
2017-02-13T12:56:23.633Z,83.6
2017-02-13T13:06:37.927Z,83.3
2017-02-13T13:16:52.448Z,82.9
2017-02-13T13:27:10.287Z,82.4
2017-02-13T13:37:20.694Z,82.3
2017-02-13T13:58:03.027Z,81.3
2017-02-13T14:08:03.295Z,81.2
2017-02-13T14:18:17.371Z,80.7
2017-02-13T14:28:31.156Z,80
2017-02-13T14:38:46.123Z,80.6
2017-02-13T14:49:00.853Z,80.2
2017-02-13T14:59:20.443Z,80.2
2017-02-13T15:10:13.195Z,80.2
2017-02-13T15:19:43.959Z,79.9
2017-02-13T15:29:57.414Z,79.8
2017-02-13T15:40:12.119Z,79.4
2017-02-13T15:50:26.044Z,78.5
2017-02-13T16:00:39.396Z,79.4
2017-02-13T16:11:01.069Z,80.6
2017-02-13T16:21:07.730Z,81.5
2017-02-13T16:31:21.065Z,82.8
2017-02-13T16:41:34.703Z,84
2017-02-13T16:51:49.610Z,84.8
2017-02-13T17:02:11.670Z,85.6
2017-02-13T17:12:16.500Z,87
2017-02-13T17:22:33.451Z,87.1
2017-02-13T17:32:43.015Z,88.1
2017-02-13T17:42:56.708Z,87.9
2017-02-13T17:53:11.459Z,88.4
2017-02-13T18:03:25.475Z,88.2
2017-02-13T18:13:40.000Z,88.3
2017-02-13T18:24:10.228Z,88.4
2017-02-13T18:34:08.555Z,89
2017-02-13T18:44:21.791Z,89.5
2017-02-13T18:54:40.198Z,89.8
2017-02-13T19:04:51.445Z,90.7
2017-02-13T19:15:04.514Z,91
2017-02-13T19:25:17.894Z,90.6
2017-02-13T19:35:30.896Z,90.8
2017-02-13T19:45:44.955Z,90.8
2017-02-13T19:55:59.113Z,90.2
2017-02-13T20:06:12.342Z,89.5
2017-02-13T20:16:27.302Z,89
2017-02-13T20:26:47.976Z,88.6
2017-02-13T20:36:56.519Z,88.2
2017-02-13T20:47:13.327Z,89.7
2017-02-13T20:57:26.218Z,90.2
2017-02-13T21:07:40.247Z,90.3
2017-02-13T21:17:54.108Z,91.1
2017-02-13T21:28:09.019Z,91.4
2017-02-13T21:38:23.571Z,92.2
2017-02-13T21:48:36.826Z,92.5
2017-02-13T21:58:51.087Z,92.7
2017-02-13T22:09:04.450Z,93.1
2017-02-13T22:19:17.585Z,93.1
2017-02-13T22:29:31.758Z,93.7
2017-02-13T22:39:44.971Z,93.7
2017-02-13T22:49:59.185Z,93.6
2017-02-13T23:00:13.284Z,93.8
2017-02-13T23:10:26.799Z,94.5
2017-02-13T23:20:41.702Z,94
2017-02-13T23:30:55.298Z,94.5
2017-02-13T23:41:09.011Z,95.2
2017-02-13T23:51:22.140Z,94.9
